Terminal Aerodrome Forecast
Issued by NWS Wilmington, OH

Current Version | Previous Version | Graphics & Text | Print | Product List | Glossary On
Versions: 1 2 3 4 5 6 7 8 9 10 11 12 13 14 15 16 17 18
000
FTUS41 KILN 202018 AAG
TAFILN
TAF AMD
KILN 202018Z 2020/2118 14007KT P6SM VCTS SCT025 BKN040CB
      TEMPO 2020/2023 2SM -TSRA OVC025CB
     FM202300 15007KT P6SM VCTS BKN040CB
     FM210600 16007KT 5SM -SHRA VCTS OVC040CB
     FM211300 17010G18KT 4SM SHRA VCTS OVC013CB
     FM211600 19012G20KT 4SM -SHRA VCTS OVC025CB=

USA.gov is the U.S. government's official web portal to all federal, state and local government web resources and services.